sensor_id;sensor_type;location;lat;lon;timestamp;temperature;humidity
50570;DHT22;36525;49.398;7.614;2023-02-28T00:00:35;-1.00;99.90
50570;DHT22;36525;49.398;7.614;2023-02-28T00:03:02;-1.10;99.90
50570;DHT22;36525;49.398;7.614;2023-02-28T00:05:30;-1.20;99.90
50570;DHT22;36525;49.398;7.614;2023-02-28T00:07:57;-1.30;99.90
50570;DHT22;36525;49.398;7.614;2023-02-28T00:10:25;-1.40;99.90
50570;DHT22;36525;49.398;7.614;2023-02-28T00:12:54;-1.40;99.90
50570;DHT22;36525;49.398;7.614;2023-02-28T00:15:25;-1.50;99.90
50570;DHT22;36525;49.398;7.614;2023-02-28T00:17:52;-1.50;99.90
50570;DHT22;36525;49.398;7.614;2023-02-28T00:20:19;-1.60;99.90
50570;DHT22;36525;49.398;7.614;2023-02-28T00:22:50;-1.60;99.90
50570;DHT22;36525;49.398;7.614;2023-02-28T00:25:19;-1.70;99.90
50570;DHT22;36525;49.398;7.614;2023-02-28T00:27:47;-1.70;99.90
50570;DHT22;36525;49.398;7.614;2023-02-28T00:30:18;-1.70;99.90
50570;DHT22;36525;49.398;7.614;2023-02-28T00:32:46;-1.70;99.90
50570;DHT22;36525;49.398;7.614;2023-02-28T00:35:16;-1.80;99.90
50570;DHT22;36525;49.398;7.614;2023-02-28T00:37:43;-1.80;99.90
50570;DHT22;36525;49.398;7.614;2023-02-28T00:40:10;-1.80;99.90
50570;DHT22;36525;49.398;7.614;2023-02-28T00:42:38;-1.90;99.90
50570;DHT22;36525;49.398;7.614;2023-02-28T00:45:05;-1.90;99.90
50570;DHT22;36525;49.398;7.614;2023-02-28T00:47:33;-1.90;99.90
50570;DHT22;36525;49.398;7.614;2023-02-28T00:50:00;-2.00;99.90
50570;DHT22;36525;49.398;7.614;2023-02-28T00:52:27;-2.00;99.90
50570;DHT22;36525;49.398;7.614;2023-02-28T00:54:54;-2.00;99.90
50570;DHT22;36525;49.398;7.614;2023-02-28T00:57:21;-2.00;99.90
50570;DHT22;36525;49.398;7.614;2023-02-28T00:59:48;-2.00;99.90
50570;DHT22;36525;49.398;7.614;2023-02-28T01:02:15;-2.10;99.90
50570;DHT22;36525;49.398;7.614;2023-02-28T01:04:41;-2.10;99.90
50570;DHT22;36525;49.398;7.614;2023-02-28T01:07:08;-2.10;99.90
50570;DHT22;36525;49.398;7.614;2023-02-28T01:09:35;-2.10;99.90
50570;DHT22;36525;49.398;7.614;2023-02-28T01:12:02;-2.10;99.90
50570;DHT22;36525;49.398;7.614;2023-02-28T01:14:29;-2.20;99.90
50570;DHT22;36525;49.398;7.614;2023-02-28T01:16:56;-2.20;99.90
50570;DHT22;36525;49.398;7.614;2023-02-28T01:19:23;-2.20;99.90
50570;DHT22;36525;49.398;7.614;2023-02-28T01:21:49;-2.20;99.90
50570;DHT22;36525;49.398;7.614;2023-02-28T01:24:16;-2.20;99.90
50570;DHT22;36525;49.398;7.614;2023-02-28T01:26:43;-2.20;99.90
50570;DHT22;36525;49.398;7.614;2023-02-28T01:29:10;-2.20;99.90
50570;DHT22;36525;49.398;7.614;2023-02-28T01:31:37;-2.30;99.90
50570;DHT22;36525;49.398;7.614;2023-02-28T01:34:04;-2.30;99.90
50570;DHT22;36525;49.398;7.614;2023-02-28T01:36:31;-2.30;99.90
50570;DHT22;36525;49.398;7.614;2023-02-28T01:38:57;-2.40;99.90
50570;DHT22;36525;49.398;7.614;2023-02-28T01:41:26;-2.40;99.90
50570;DHT22;36525;49.398;7.614;2023-02-28T01:43:57;-2.40;99.90
50570;DHT22;36525;49.398;7.614;2023-02-28T01:46:26;-2.40;99.90
50570;DHT22;36525;49.398;7.614;2023-02-28T01:49:04;-2.40;99.90
50570;DHT22;36525;49.398;7.614;2023-02-28T01:51:39;-2.40;99.90
50570;DHT22;36525;49.398;7.614;2023-02-28T01:54:12;-2.40;99.90
50570;DHT22;36525;49.398;7.614;2023-02-28T01:56:44;-2.40;99.90
50570;DHT22;36525;49.398;7.614;2023-02-28T01:59:14;-2.40;99.90
50570;DHT22;36525;49.398;7.614;2023-02-28T02:02:13;-2.40;99.90
50570;DHT22;36525;49.398;7.614;2023-02-28T02:04:41;-2.40;99.90
50570;DHT22;36525;49.398;7.614;2023-02-28T02:07:18;-2.40;99.90
50570;DHT22;36525;49.398;7.614;2023-02-28T02:09:45;-2.40;99.90
50570;DHT22;36525;49.398;7.614;2023-02-28T02:12:25;-2.40;99.90
50570;DHT22;36525;49.398;7.614;2023-02-28T02:15:14;-2.50;99.90
50570;DHT22;36525;49.398;7.614;2023-02-28T02:17:48;-2.60;99.90
50570;DHT22;36525;49.398;7.614;2023-02-28T02:23:01;-2.60;99.90
50570;DHT22;36525;49.398;7.614;2023-02-28T02:34:03;-2.60;99.90
50570;DHT22;36525;49.398;7.614;2023-02-28T02:42:54;-2.60;99.90
50570;DHT22;36525;49.398;7.614;2023-02-28T02:48:05;-2.70;99.90
50570;DHT22;36525;49.398;7.614;2023-02-28T02:50:38;-2.70;99.90
50570;DHT22;36525;49.398;7.614;2023-02-28T02:53:09;-2.80;99.90
50570;DHT22;36525;49.398;7.614;2023-02-28T02:55:38;-2.80;99.90
50570;DHT22;36525;49.398;7.614;2023-02-28T02:58:08;-2.80;99.90
50570;DHT22;36525;49.398;7.614;2023-02-28T03:00:38;-2.80;99.90
50570;DHT22;36525;49.398;7.614;2023-02-28T03:03:08;-2.90;99.90
50570;DHT22;36525;49.398;7.614;2023-02-28T03:05:42;-2.90;99.90
50570;DHT22;36525;49.398;7.614;2023-02-28T03:08:12;-2.90;99.90
50570;DHT22;36525;49.398;7.614;2023-02-28T03:10:40;-2.90;99.90
50570;DHT22;36525;49.398;7.614;2023-02-28T03:18:48;-3.00;99.90
50570;DHT22;36525;49.398;7.614;2023-02-28T03:27:24;-3.00;99.90
50570;DHT22;36525;49.398;7.614;2023-02-28T03:29:59;-3.00;99.90
50570;DHT22;36525;49.398;7.614;2023-02-28T03:35:01;-3.00;99.90
50570;DHT22;36525;49.398;7.614;2023-02-28T03:37:33;-3.00;99.90
50570;DHT22;36525;49.398;7.614;2023-02-28T03:40:13;-3.10;99.90
50570;DHT22;36525;49.398;7.614;2023-02-28T03:42:44;-3.10;99.90
50570;DHT22;36525;49.398;7.614;2023-02-28T03:45:16;-3.10;99.90
50570;DHT22;36525;49.398;7.614;2023-02-28T03:47:52;-3.00;99.90
50570;DHT22;36525;49.398;7.614;2023-02-28T03:50:24;-3.10;99.90
50570;DHT22;36525;49.398;7.614;2023-02-28T03:53:01;-3.10;99.90
50570;DHT22;36525;49.398;7.614;2023-02-28T03:55:34;-3.10;99.90
50570;DHT22;36525;49.398;7.614;2023-02-28T04:01:00;-3.10;99.90
50570;DHT22;36525;49.398;7.614;2023-02-28T04:03:37;-3.20;99.90
50570;DHT22;36525;49.398;7.614;2023-02-28T04:06:08;-3.10;99.90
50570;DHT22;36525;49.398;7.614;2023-02-28T04:08:41;-3.10;99.90
50570;DHT22;36525;49.398;7.614;2023-02-28T04:11:27;-3.10;99.90
50570;DHT22;36525;49.398;7.614;2023-02-28T04:14:05;-3.10;99.90
50570;DHT22;36525;49.398;7.614;2023-02-28T04:16:34;-3.20;99.90
50570;DHT22;36525;49.398;7.614;2023-02-28T04:19:03;-3.20;99.90
50570;DHT22;36525;49.398;7.614;2023-02-28T04:21:32;-3.20;99.90
50570;DHT22;36525;49.398;7.614;2023-02-28T04:24:07;-3.20;99.90
50570;DHT22;36525;49.398;7.614;2023-02-28T04:26:41;-3.20;99.90
50570;DHT22;36525;49.398;7.614;2023-02-28T04:29:11;-3.20;99.90
50570;DHT22;36525;49.398;7.614;2023-02-28T04:31:39;-3.20;99.90
50570;DHT22;36525;49.398;7.614;2023-02-28T04:34:06;-3.20;99.90
50570;DHT22;36525;49.398;7.614;2023-02-28T04:36:33;-3.20;99.90
50570;DHT22;36525;49.398;7.614;2023-02-28T04:39:00;-3.20;99.90
50570;DHT22;36525;49.398;7.614;2023-02-28T04:41:27;-3.30;99.90
50570;DHT22;36525;49.398;7.614;2023-02-28T04:43:58;-3.20;99.90
50570;DHT22;36525;49.398;7.614;2023-02-28T04:46:24;-3.20;99.90
50570;DHT22;36525;49.398;7.614;2023-02-28T04:48:51;-3.20;99.90
50570;DHT22;36525;49.398;7.614;2023-02-28T04:51:20;-3.30;99.90
50570;DHT22;36525;49.398;7.614;2023-02-28T04:53:47;-3.30;99.90
50570;DHT22;36525;49.398;7.614;2023-02-28T04:56:15;-3.20;99.90
50570;DHT22;36525;49.398;7.614;2023-02-28T04:58:42;-3.30;99.90
50570;DHT22;36525;49.398;7.614;2023-02-28T05:04:03;-3.30;99.90
50570;DHT22;36525;49.398;7.614;2023-02-28T05:06:31;-3.30;99.90
50570;DHT22;36525;49.398;7.614;2023-02-28T05:08:59;-3.30;99.90
50570;DHT22;36525;49.398;7.614;2023-02-28T05:11:27;-3.30;99.90
50570;DHT22;36525;49.398;7.614;2023-02-28T05:13:56;-3.30;99.90
50570;DHT22;36525;49.398;7.614;2023-02-28T05:16:23;-3.30;99.90
50570;DHT22;36525;49.398;7.614;2023-02-28T05:18:50;-3.20;99.90
50570;DHT22;36525;49.398;7.614;2023-02-28T05:21:21;-3.30;99.90
50570;DHT22;36525;49.398;7.614;2023-02-28T05:23:54;-3.30;99.90
50570;DHT22;36525;49.398;7.614;2023-02-28T05:26:24;-3.30;99.90
50570;DHT22;36525;49.398;7.614;2023-02-28T05:28:51;-3.30;99.90
50570;DHT22;36525;49.398;7.614;2023-02-28T05:31:18;-3.30;99.90
50570;DHT22;36525;49.398;7.614;2023-02-28T05:33:45;-3.30;99.90
50570;DHT22;36525;49.398;7.614;2023-02-28T05:36:12;-3.20;99.90
50570;DHT22;36525;49.398;7.614;2023-02-28T05:38:39;-3.30;99.90
50570;DHT22;36525;49.398;7.614;2023-02-28T05:41:09;-3.30;99.90
50570;DHT22;36525;49.398;7.614;2023-02-28T05:43:37;-3.20;99.90
50570;DHT22;36525;49.398;7.614;2023-02-28T05:46:05;-3.20;99.90
50570;DHT22;36525;49.398;7.614;2023-02-28T05:48:33;-3.20;99.90
50570;DHT22;36525;49.398;7.614;2023-02-28T05:51:01;-3.20;99.90
50570;DHT22;36525;49.398;7.614;2023-02-28T05:53:29;-3.20;99.90
50570;DHT22;36525;49.398;7.614;2023-02-28T05:55:56;-3.30;99.90
50570;DHT22;36525;49.398;7.614;2023-02-28T05:58:23;-3.20;99.90
50570;DHT22;36525;49.398;7.614;2023-02-28T06:00:51;-3.30;99.90
50570;DHT22;36525;49.398;7.614;2023-02-28T06:03:18;-3.30;99.90
50570;DHT22;36525;49.398;7.614;2023-02-28T06:05:46;-3.30;99.90
50570;DHT22;36525;49.398;7.614;2023-02-28T06:08:13;-3.30;99.90
50570;DHT22;36525;49.398;7.614;2023-02-28T06:10:40;-3.30;99.90
50570;DHT22;36525;49.398;7.614;2023-02-28T06:13:07;-3.30;99.90
50570;DHT22;36525;49.398;7.614;2023-02-28T06:15:33;-3.20;99.90
50570;DHT22;36525;49.398;7.614;2023-02-28T06:18:00;-3.10;99.90
50570;DHT22;36525;49.398;7.614;2023-02-28T06:20:28;-3.20;99.90
50570;DHT22;36525;49.398;7.614;2023-02-28T06:22:56;-3.10;99.90
50570;DHT22;36525;49.398;7.614;2023-02-28T06:25:25;-3.10;99.90
50570;DHT22;36525;49.398;7.614;2023-02-28T06:27:53;-3.10;99.90
50570;DHT22;36525;49.398;7.614;2023-02-28T06:30:21;-3.00;99.90
50570;DHT22;36525;49.398;7.614;2023-02-28T06:32:53;-3.00;99.90
50570;DHT22;36525;49.398;7.614;2023-02-28T06:35:21;-3.00;99.90
50570;DHT22;36525;49.398;7.614;2023-02-28T06:37:48;-2.90;99.90
50570;DHT22;36525;49.398;7.614;2023-02-28T06:40:15;-2.90;99.90
50570;DHT22;36525;49.398;7.614;2023-02-28T06:42:42;-2.80;99.90
50570;DHT22;36525;49.398;7.614;2023-02-28T06:45:09;-2.80;99.90
50570;DHT22;36525;49.398;7.614;2023-02-28T06:47:38;-2.80;99.90
50570;DHT22;36525;49.398;7.614;2023-02-28T06:50:06;-2.70;99.90
50570;DHT22;36525;49.398;7.614;2023-02-28T06:52:34;-2.60;99.90
50570;DHT22;36525;49.398;7.614;2023-02-28T06:55:05;-2.70;99.90
50570;DHT22;36525;49.398;7.614;2023-02-28T06:57:34;-2.60;99.90
50570;DHT22;36525;49.398;7.614;2023-02-28T07:00:03;-2.70;99.90
50570;DHT22;36525;49.398;7.614;2023-02-28T07:02:34;-2.70;99.90
50570;DHT22;36525;49.398;7.614;2023-02-28T07:05:02;-2.70;99.90
50570;DHT22;36525;49.398;7.614;2023-02-28T07:07:29;-2.70;99.90
50570;DHT22;36525;49.398;7.614;2023-02-28T07:09:57;-2.60;99.90
50570;DHT22;36525;49.398;7.614;2023-02-28T07:12:23;-2.60;99.90
50570;DHT22;36525;49.398;7.614;2023-02-28T07:14:50;-2.50;99.90
50570;DHT22;36525;49.398;7.614;2023-02-28T07:17:17;-2.40;99.90
50570;DHT22;36525;49.398;7.614;2023-02-28T07:22:11;-2.30;99.90
50570;DHT22;36525;49.398;7.614;2023-02-28T07:24:41;-2.20;99.90
50570;DHT22;36525;49.398;7.614;2023-02-28T07:27:07;-2.20;99.90
50570;DHT22;36525;49.398;7.614;2023-02-28T07:29:34;-2.10;99.90
50570;DHT22;36525;49.398;7.614;2023-02-28T07:32:01;-2.20;99.90
50570;DHT22;36525;49.398;7.614;2023-02-28T07:34:28;-2.00;99.90
50570;DHT22;36525;49.398;7.614;2023-02-28T07:36:55;-2.00;99.90
50570;DHT22;36525;49.398;7.614;2023-02-28T07:39:22;-2.00;99.90
50570;DHT22;36525;49.398;7.614;2023-02-28T07:41:49;-1.90;99.90
50570;DHT22;36525;49.398;7.614;2023-02-28T07:44:16;-1.80;99.90
50570;DHT22;36525;49.398;7.614;2023-02-28T07:46:43;-1.70;99.90
50570;DHT22;36525;49.398;7.614;2023-02-28T07:49:10;-1.60;99.90
50570;DHT22;36525;49.398;7.614;2023-02-28T07:51:37;-1.40;99.90
50570;DHT22;36525;49.398;7.614;2023-02-28T07:54:04;-1.20;99.90
50570;DHT22;36525;49.398;7.614;2023-02-28T07:56:31;-1.00;99.90
50570;DHT22;36525;49.398;7.614;2023-02-28T07:58:58;-1.00;99.90
50570;DHT22;36525;49.398;7.614;2023-02-28T08:01:25;-1.00;99.90
50570;DHT22;36525;49.398;7.614;2023-02-28T08:03:52;-1.00;99.90
50570;DHT22;36525;49.398;7.614;2023-02-28T08:06:22;-0.90;99.90
50570;DHT22;36525;49.398;7.614;2023-02-28T08:08:50;-0.80;99.90
50570;DHT22;36525;49.398;7.614;2023-02-28T08:11:17;-0.70;99.90
50570;DHT22;36525;49.398;7.614;2023-02-28T08:16:12;-0.60;99.90
50570;DHT22;36525;49.398;7.614;2023-02-28T08:18:51;-0.60;99.90
50570;DHT22;36525;49.398;7.614;2023-02-28T08:21:19;-0.70;99.90
50570;DHT22;36525;49.398;7.614;2023-02-28T08:23:50;-0.50;99.90
50570;DHT22;36525;49.398;7.614;2023-02-28T08:26:17;-0.50;99.90
50570;DHT22;36525;49.398;7.614;2023-02-28T08:28:44;-0.40;99.90
50570;DHT22;36525;49.398;7.614;2023-02-28T08:31:13;-0.20;99.90
50570;DHT22;36525;49.398;7.614;2023-02-28T08:33:41;-0.30;99.90
50570;DHT22;36525;49.398;7.614;2023-02-28T08:36:08;-0.40;99.90
50570;DHT22;36525;49.398;7.614;2023-02-28T08:38:36;-0.20;99.90
50570;DHT22;36525;49.398;7.614;2023-02-28T08:41:04;0.00;99.90
50570;DHT22;36525;49.398;7.614;2023-02-28T08:43:33;-0.20;99.90
50570;DHT22;36525;49.398;7.614;2023-02-28T08:46:01;-0.30;99.90
50570;DHT22;36525;49.398;7.614;2023-02-28T08:48:29;-0.40;99.90
50570;DHT22;36525;49.398;7.614;2023-02-28T08:51:06;-0.20;99.90
50570;DHT22;36525;49.398;7.614;2023-02-28T08:53:36;-0.30;99.90
50570;DHT22;36525;49.398;7.614;2023-02-28T08:56:05;-0.20;99.90
50570;DHT22;36525;49.398;7.614;2023-02-28T08:58:33;-0.30;99.90
50570;DHT22;36525;49.398;7.614;2023-02-28T09:01:00;-0.40;99.90
50570;DHT22;36525;49.398;7.614;2023-02-28T09:03:34;-0.30;99.90
50570;DHT22;36525;49.398;7.614;2023-02-28T09:06:01;-0.20;99.90
50570;DHT22;36525;49.398;7.614;2023-02-28T09:08:29;-0.20;99.90
50570;DHT22;36525;49.398;7.614;2023-02-28T09:10:58;-0.30;99.90
50570;DHT22;36525;49.398;7.614;2023-02-28T09:13:27;-0.10;99.90
50570;DHT22;36525;49.398;7.614;2023-02-28T09:15:57;0.00;99.90
50570;DHT22;36525;49.398;7.614;2023-02-28T09:18:24;0.20;99.90
50570;DHT22;36525;49.398;7.614;2023-02-28T09:20:52;0.20;99.90
50570;DHT22;36525;49.398;7.614;2023-02-28T09:23:19;0.10;99.90
50570;DHT22;36525;49.398;7.614;2023-02-28T09:25:47;0.30;99.90
50570;DHT22;36525;49.398;7.614;2023-02-28T09:28:15;0.50;99.90
50570;DHT22;36525;49.398;7.614;2023-02-28T09:30:47;0.60;99.90
50570;DHT22;36525;49.398;7.614;2023-02-28T09:33:16;0.60;99.90
50570;DHT22;36525;49.398;7.614;2023-02-28T09:35:43;0.70;99.90
50570;DHT22;36525;49.398;7.614;2023-02-28T09:38:10;0.80;99.90
50570;DHT22;36525;49.398;7.614;2023-02-28T09:41:00;0.80;99.90
50570;DHT22;36525;49.398;7.614;2023-02-28T09:43:36;0.70;99.90
50570;DHT22;36525;49.398;7.614;2023-02-28T09:46:18;0.70;99.90
50570;DHT22;36525;49.398;7.614;2023-02-28T09:49:07;0.80;99.90
50570;DHT22;36525;49.398;7.614;2023-02-28T09:51:51;0.50;99.90
50570;DHT22;36525;49.398;7.614;2023-02-28T09:54:28;0.40;99.90
50570;DHT22;36525;49.398;7.614;2023-02-28T10:05:05;0.80;99.90
50570;DHT22;36525;49.398;7.614;2023-02-28T10:10:46;1.30;99.90
50570;DHT22;36525;49.398;7.614;2023-02-28T10:13:53;1.70;99.90
50570;DHT22;36525;49.398;7.614;2023-02-28T10:16:34;2.00;99.90
50570;DHT22;36525;49.398;7.614;2023-02-28T10:19:04;2.60;99.90
50570;DHT22;36525;49.398;7.614;2023-02-28T10:21:35;2.40;99.90
50570;DHT22;36525;49.398;7.614;2023-02-28T10:24:51;2.60;99.90
50570;DHT22;36525;49.398;7.614;2023-02-28T10:29:54;1.60;99.90
50570;DHT22;36525;49.398;7.614;2023-02-28T10:32:27;1.50;99.90
50570;DHT22;36525;49.398;7.614;2023-02-28T10:34:57;1.40;99.90
50570;DHT22;36525;49.398;7.614;2023-02-28T10:37:27;1.40;99.90
50570;DHT22;36525;49.398;7.614;2023-02-28T10:39:54;1.60;99.90
50570;DHT22;36525;49.398;7.614;2023-02-28T10:42:27;1.70;99.90
50570;DHT22;36525;49.398;7.614;2023-02-28T10:45:05;1.90;99.90
50570;DHT22;36525;49.398;7.614;2023-02-28T10:56:03;2.50;99.90
50570;DHT22;36525;49.398;7.614;2023-02-28T10:58:34;2.60;99.90
50570;DHT22;36525;49.398;7.614;2023-02-28T11:01:16;2.60;99.90
50570;DHT22;36525;49.398;7.614;2023-02-28T11:03:50;2.40;99.90
50570;DHT22;36525;49.398;7.614;2023-02-28T11:06:19;2.60;99.90
50570;DHT22;36525;49.398;7.614;2023-02-28T11:08:54;2.80;99.90
50570;DHT22;36525;49.398;7.614;2023-02-28T11:11:24;2.60;99.90
50570;DHT22;36525;49.398;7.614;2023-02-28T11:13:54;2.20;99.90
50570;DHT22;36525;49.398;7.614;2023-02-28T11:16:30;2.00;99.90
50570;DHT22;36525;49.398;7.614;2023-02-28T11:18:58;1.90;99.90
50570;DHT22;36525;49.398;7.614;2023-02-28T11:21:27;1.80;99.90
50570;DHT22;36525;49.398;7.614;2023-02-28T11:24:03;2.00;99.90
50570;DHT22;36525;49.398;7.614;2023-02-28T11:26:50;2.00;99.90
50570;DHT22;36525;49.398;7.614;2023-02-28T11:29:28;2.20;99.90
50570;DHT22;36525;49.398;7.614;2023-02-28T11:34:38;2.50;99.90
50570;DHT22;36525;49.398;7.614;2023-02-28T11:37:09;2.60;99.90
50570;DHT22;36525;49.398;7.614;2023-02-28T11:39:39;2.60;99.90
50570;DHT22;36525;49.398;7.614;2023-02-28T11:47:56;2.70;99.90
50570;DHT22;36525;49.398;7.614;2023-02-28T11:50:45;2.70;99.90
50570;DHT22;36525;49.398;7.614;2023-02-28T11:53:16;3.00;99.90
50570;DHT22;36525;49.398;7.614;2023-02-28T11:55:49;3.10;99.90
50570;DHT22;36525;49.398;7.614;2023-02-28T11:58:24;2.80;99.90
50570;DHT22;36525;49.398;7.614;2023-02-28T12:01:02;2.70;99.90
50570;DHT22;36525;49.398;7.614;2023-02-28T12:12:19;3.20;99.90
50570;DHT22;36525;49.398;7.614;2023-02-28T12:17:32;3.20;99.90
50570;DHT22;36525;49.398;7.614;2023-02-28T12:22:42;3.20;99.90
50570;DHT22;36525;49.398;7.614;2023-02-28T12:25:40;3.10;99.90
50570;DHT22;36525;49.398;7.614;2023-02-28T12:28:15;2.80;99.90
50570;DHT22;36525;49.398;7.614;2023-02-28T12:30:59;3.20;99.90
50570;DHT22;36525;49.398;7.614;2023-02-28T12:33:34;3.50;99.90
50570;DHT22;36525;49.398;7.614;2023-02-28T12:36:05;3.60;99.90
50570;DHT22;36525;49.398;7.614;2023-02-28T12:38:38;3.90;99.90
50570;DHT22;36525;49.398;7.614;2023-02-28T12:43:46;3.70;99.90
50570;DHT22;36525;49.398;7.614;2023-02-28T12:48:48;4.00;99.90
50570;DHT22;36525;49.398;7.614;2023-02-28T12:51:19;3.90;99.90
50570;DHT22;36525;49.398;7.614;2023-02-28T12:59:27;4.50;98.70
50570;DHT22;36525;49.398;7.614;2023-02-28T13:11:05;4.20;98.60
50570;DHT22;36525;49.398;7.614;2023-02-28T13:13:45;3.90;99.00
50570;DHT22;36525;49.398;7.614;2023-02-28T13:16:12;4.10;99.00
50570;DHT22;36525;49.398;7.614;2023-02-28T13:18:39;3.80;99.30
50570;DHT22;36525;49.398;7.614;2023-02-28T13:21:22;3.90;99.30
50570;DHT22;36525;49.398;7.614;2023-02-28T13:28:58;3.70;99.00
50570;DHT22;36525;49.398;7.614;2023-02-28T13:32:18;3.90;99.40
50570;DHT22;36525;49.398;7.614;2023-02-28T13:39:52;8.40;93.20
50570;DHT22;36525;49.398;7.614;2023-02-28T13:45:23;8.00;91.90
50570;DHT22;36525;49.398;7.614;2023-02-28T13:50:32;8.80;90.60
50570;DHT22;36525;49.398;7.614;2023-02-28T13:55:45;9.90;86.70
50570;DHT22;36525;49.398;7.614;2023-02-28T14:06:58;11.30;82.40
50570;DHT22;36525;49.398;7.614;2023-02-28T14:09:27;12.30;81.20
50570;DHT22;36525;49.398;7.614;2023-02-28T14:11:57;12.20;78.70
50570;DHT22;36525;49.398;7.614;2023-02-28T14:17:04;9.80;79.20
50570;DHT22;36525;49.398;7.614;2023-02-28T14:19:36;10.60;80.00
50570;DHT22;36525;49.398;7.614;2023-02-28T14:36:18;11.70;75.60
50570;DHT22;36525;49.398;7.614;2023-02-28T14:38:50;11.50;75.90
50570;DHT22;36525;49.398;7.614;2023-02-28T14:41:32;10.80;76.60
50570;DHT22;36525;49.398;7.614;2023-02-28T14:44:14;10.40;76.90
50570;DHT22;36525;49.398;7.614;2023-02-28T14:46:45;11.20;76.80
50570;DHT22;36525;49.398;7.614;2023-02-28T14:49:18;11.40;76.10
50570;DHT22;36525;49.398;7.614;2023-02-28T14:51:45;12.00;76.00
50570;DHT22;36525;49.398;7.614;2023-02-28T14:54:17;11.90;75.80
50570;DHT22;36525;49.398;7.614;2023-02-28T14:56:50;12.20;76.10
50570;DHT22;36525;49.398;7.614;2023-02-28T14:59:25;11.90;76.00
50570;DHT22;36525;49.398;7.614;2023-02-28T15:04:56;11.20;76.00
50570;DHT22;36525;49.398;7.614;2023-02-28T15:08:00;11.30;76.90
50570;DHT22;36525;49.398;7.614;2023-02-28T15:10:29;11.50;75.40
50570;DHT22;36525;49.398;7.614;2023-02-28T15:12:58;10.80;76.20
50570;DHT22;36525;49.398;7.614;2023-02-28T15:15:50;10.60;76.60
50570;DHT22;36525;49.398;7.614;2023-02-28T15:18:34;10.20;77.60
50570;DHT22;36525;49.398;7.614;2023-02-28T15:21:11;10.30;77.50
50570;DHT22;36525;49.398;7.614;2023-02-28T15:23:42;10.90;76.90
50570;DHT22;36525;49.398;7.614;2023-02-28T15:26:19;10.40;76.70
50570;DHT22;36525;49.398;7.614;2023-02-28T15:28:49;10.50;77.20
50570;DHT22;36525;49.398;7.614;2023-02-28T15:31:23;11.60;76.10
50570;DHT22;36525;49.398;7.614;2023-02-28T15:34:03;11.20;77.00
50570;DHT22;36525;49.398;7.614;2023-02-28T15:36:32;11.80;76.80
50570;DHT22;36525;49.398;7.614;2023-02-28T15:39:18;11.60;75.10
50570;DHT22;36525;49.398;7.614;2023-02-28T15:41:46;11.90;75.20
50570;DHT22;36525;49.398;7.614;2023-02-28T15:44:14;11.00;76.10
50570;DHT22;36525;49.398;7.614;2023-02-28T15:46:57;10.40;76.60
50570;DHT22;36525;49.398;7.614;2023-02-28T15:49:30;9.80;77.40
50570;DHT22;36525;49.398;7.614;2023-02-28T15:52:12;9.80;78.40
50570;DHT22;36525;49.398;7.614;2023-02-28T15:54:41;9.80;77.40
50570;DHT22;36525;49.398;7.614;2023-02-28T15:57:17;9.90;77.50
50570;DHT22;36525;49.398;7.614;2023-02-28T15:59:51;10.60;76.80
50570;DHT22;36525;49.398;7.614;2023-02-28T16:02:21;10.50;76.70
50570;DHT22;36525;49.398;7.614;2023-02-28T16:05:02;10.70;76.80
50570;DHT22;36525;49.398;7.614;2023-02-28T16:07:35;10.00;77.00
50570;DHT22;36525;49.398;7.614;2023-02-28T16:10:04;10.10;77.40
50570;DHT22;36525;49.398;7.614;2023-02-28T16:12:32;9.70;77.50
50570;DHT22;36525;49.398;7.614;2023-02-28T16:15:09;9.10;78.50
50570;DHT22;36525;49.398;7.614;2023-02-28T16:17:45;10.10;78.40
50570;DHT22;36525;49.398;7.614;2023-02-28T16:20:20;10.20;78.00
50570;DHT22;36525;49.398;7.614;2023-02-28T16:22:51;9.90;78.20
50570;DHT22;36525;49.398;7.614;2023-02-28T16:25:19;9.60;78.50
50570;DHT22;36525;49.398;7.614;2023-02-28T16:27:48;8.80;79.20
50570;DHT22;36525;49.398;7.614;2023-02-28T16:30:18;9.00;79.70
50570;DHT22;36525;49.398;7.614;2023-02-28T16:32:47;8.90;78.90
50570;DHT22;36525;49.398;7.614;2023-02-28T16:35:15;8.10;80.90
50570;DHT22;36525;49.398;7.614;2023-02-28T16:37:44;8.00;81.90
50570;DHT22;36525;49.398;7.614;2023-02-28T16:42:43;5.90;84.70
50570;DHT22;36525;49.398;7.614;2023-02-28T16:45:17;4.50;88.20
50570;DHT22;36525;49.398;7.614;2023-02-28T16:47:46;4.20;89.80
50570;DHT22;36525;49.398;7.614;2023-02-28T16:50:16;3.90;90.40
50570;DHT22;36525;49.398;7.614;2023-02-28T16:52:49;3.70;91.20
50570;DHT22;36525;49.398;7.614;2023-02-28T16:55:21;3.50;91.30
50570;DHT22;36525;49.398;7.614;2023-02-28T16:57:56;3.30;91.70
50570;DHT22;36525;49.398;7.614;2023-02-28T17:00:25;3.20;92.20
50570;DHT22;36525;49.398;7.614;2023-02-28T17:02:54;3.10;92.30
50570;DHT22;36525;49.398;7.614;2023-02-28T17:05:21;2.90;92.80
50570;DHT22;36525;49.398;7.614;2023-02-28T17:07:49;2.80;92.70
50570;DHT22;36525;49.398;7.614;2023-02-28T17:10:20;2.80;93.10
50570;DHT22;36525;49.398;7.614;2023-02-28T17:12:50;2.60;93.40
50570;DHT22;36525;49.398;7.614;2023-02-28T17:15:18;2.40;93.80
50570;DHT22;36525;49.398;7.614;2023-02-28T17:17:46;2.40;94.00
50570;DHT22;36525;49.398;7.614;2023-02-28T17:20:21;2.40;94.30
50570;DHT22;36525;49.398;7.614;2023-02-28T17:22:53;2.30;94.60
50570;DHT22;36525;49.398;7.614;2023-02-28T17:25:20;2.20;94.70
50570;DHT22;36525;49.398;7.614;2023-02-28T17:27:47;2.20;94.80
50570;DHT22;36525;49.398;7.614;2023-02-28T17:30:18;2.10;95.20
50570;DHT22;36525;49.398;7.614;2023-02-28T17:32:47;2.00;95.40
50570;DHT22;36525;49.398;7.614;2023-02-28T17:35:14;2.00;95.80
50570;DHT22;36525;49.398;7.614;2023-02-28T17:37:41;1.80;96.30
50570;DHT22;36525;49.398;7.614;2023-02-28T17:40:13;1.80;96.10
50570;DHT22;36525;49.398;7.614;2023-02-28T17:42:45;1.80;96.40
50570;DHT22;36525;49.398;7.614;2023-02-28T17:45:13;1.70;96.60
50570;DHT22;36525;49.398;7.614;2023-02-28T17:47:41;1.70;96.90
50570;DHT22;36525;49.398;7.614;2023-02-28T17:50:12;1.60;97.20
50570;DHT22;36525;49.398;7.614;2023-02-28T17:52:41;1.50;97.50
50570;DHT22;36525;49.398;7.614;2023-02-28T17:55:09;1.40;98.10
50570;DHT22;36525;49.398;7.614;2023-02-28T17:57:36;1.50;98.00
50570;DHT22;36525;49.398;7.614;2023-02-28T18:00:03;1.40;98.50
50570;DHT22;36525;49.398;7.614;2023-02-28T18:02:33;1.40;98.60
50570;DHT22;36525;49.398;7.614;2023-02-28T18:05:00;1.30;98.80
50570;DHT22;36525;49.398;7.614;2023-02-28T18:07:27;1.30;99.20
50570;DHT22;36525;49.398;7.614;2023-02-28T18:09:53;1.30;99.30
50570;DHT22;36525;49.398;7.614;2023-02-28T18:12:20;1.20;99.30
50570;DHT22;36525;49.398;7.614;2023-02-28T18:14:47;1.20;99.40
50570;DHT22;36525;49.398;7.614;2023-02-28T18:17:14;1.20;99.60
50570;DHT22;36525;49.398;7.614;2023-02-28T18:19:41;1.20;99.30
50570;DHT22;36525;49.398;7.614;2023-02-28T18:22:08;1.20;99.60
50570;DHT22;36525;49.398;7.614;2023-02-28T18:24:35;1.10;99.90
50570;DHT22;36525;49.398;7.614;2023-02-28T18:27:02;1.10;99.90
50570;DHT22;36525;49.398;7.614;2023-02-28T18:29:29;1.10;99.90
50570;DHT22;36525;49.398;7.614;2023-02-28T18:31:57;0.90;99.90
50570;DHT22;36525;49.398;7.614;2023-02-28T18:34:24;0.90;99.90
50570;DHT22;36525;49.398;7.614;2023-02-28T18:36:51;0.80;99.90
50570;DHT22;36525;49.398;7.614;2023-02-28T18:39:19;0.80;99.90